createdAt,value
2022-09-23T00:05:42.120Z,7.50
2022-09-23T00:15:47.023Z,12.23
2022-09-23T00:26:05.350Z,11.53
2022-09-23T00:36:11.210Z,10.57
2022-09-23T00:46:19.013Z,11.40
2022-09-23T00:56:26.300Z,11.80
2022-09-23T01:06:31.152Z,11.23
2022-09-23T01:16:53.803Z,10.57
2022-09-23T01:27:03.912Z,13.20
2022-09-23T01:37:25.150Z,9.73
2022-09-23T01:47:51.623Z,10.13
2022-09-23T01:58:01.548Z,12.70
2022-09-23T02:08:07.332Z,9.57
2022-09-23T02:18:15.630Z,9.33
2022-09-23T02:28:25.939Z,11.53
2022-09-23T02:38:44.271Z,8.80
2022-09-23T02:48:56.974Z,11.47
2022-09-23T02:59:02.301Z,9.10
2022-09-23T03:09:20.381Z,9.47
2022-09-23T03:19:22.485Z,9.00
2022-09-23T03:29:25.741Z,10.77
2022-09-23T03:39:46.248Z,9.63
2022-09-23T03:49:49.701Z,8.63
2022-09-23T03:59:52.313Z,10.03
2022-09-23T04:09:54.504Z,9.87
2022-09-23T04:19:56.630Z,11.00
2022-09-23T04:29:58.707Z,10.13
2022-09-23T04:40:03.894Z,10.33
2022-09-23T04:50:07.992Z,12.53
2022-09-23T05:00:15.578Z,11.20
2022-09-23T05:10:19.167Z,9.90
2022-09-23T05:20:21.772Z,11.07
2022-09-23T05:30:24.687Z,12.07
2022-09-23T05:40:29.363Z,12.20
2022-09-23T05:50:31.680Z,12.53
2022-09-23T06:00:33.648Z,8.67
2022-09-23T06:10:47.916Z,8.33
2022-09-23T06:20:58.079Z,9.27
2022-09-23T06:31:03.306Z,8.73
2022-09-23T06:41:07.284Z,10.02
2022-09-23T06:51:11.429Z,9.93
2022-09-23T07:01:17.682Z,9.23
2022-09-23T07:11:25.370Z,7.10
2022-09-23T07:21:28.084Z,7.95
2022-09-23T07:31:39.272Z,5.72
2022-09-23T07:41:44.960Z,6.35
2022-09-23T07:51:49.361Z,6.20
2022-09-23T08:01:52.896Z,5.15
2022-09-23T08:12:01.147Z,5.70
2022-09-23T08:22:03.182Z,5.38
2022-09-23T08:32:11.353Z,5.25
2022-09-23T08:42:30.192Z,5.85
2022-09-23T08:52:47.378Z,4.25
2022-09-23T09:02:53.715Z,4.28
2022-09-23T09:13:17.177Z,4.40
2022-09-23T09:23:24.908Z,2.67
2022-09-23T09:33:50.496Z,2.95
2022-09-23T09:43:57.370Z,2.65
2022-09-23T09:54:25.625Z,2.17
2022-09-23T10:04:36.732Z,2.65
2022-09-23T10:14:38.840Z,2.97
2022-09-23T10:24:43.927Z,1.42
2022-09-23T10:34:55.575Z,1.75
2022-09-23T10:45:28.141Z,1.98
2022-09-23T10:55:48.550Z,1.63
2022-09-23T11:06:04.128Z,1.50
2022-09-23T11:16:39.230Z,1.80
2022-09-23T11:27:16.180Z,1.50
2022-09-23T11:37:29.058Z,1.42
2022-09-23T11:47:39.813Z,1.20
2022-09-23T11:58:01.999Z,1.77
2022-09-23T12:08:25.954Z,1.75
2022-09-23T12:18:58.380Z,1.17
2022-09-23T12:29:03.642Z,1.80
2022-09-23T12:39:13.662Z,3.22
2022-09-23T12:49:39.414Z,1.85
2022-09-23T12:59:59.363Z,1.67
2022-09-23T13:10:21.262Z,1.77
2022-09-23T13:20:23.205Z,1.42
2022-09-23T13:30:32.284Z,2.50
2022-09-23T13:40:38.563Z,2.78
2022-09-23T13:50:52.303Z,1.67
2022-09-23T14:00:54.522Z,1.45
2022-09-23T14:10:57.865Z,2.50
2022-09-23T14:21:02.353Z,2.63
2022-09-23T14:31:05.514Z,2.05
2022-09-23T14:41:27.527Z,1.70
2022-09-23T14:51:32.383Z,3.10
2022-09-23T15:01:39.362Z,4.75
2022-09-23T15:11:44.356Z,2.47
2022-09-23T15:21:50.963Z,2.33
2022-09-23T15:31:55.735Z,2.65
2022-09-23T15:42:06.220Z,3.00
2022-09-23T15:52:12.542Z,2.22
2022-09-23T16:02:21.434Z,3.05
2022-09-23T16:12:27.385Z,3.45
2022-09-23T16:22:36.517Z,2.38
2022-09-23T16:32:40.831Z,2.28
2022-09-23T16:42:42.954Z,3.67
2022-09-23T16:52:58.552Z,2.33
2022-09-23T17:03:20.328Z,2.38
2022-09-23T17:13:23.435Z,4.93
2022-09-23T17:23:28.552Z,2.93
2022-09-23T17:33:37.874Z,3.43
2022-09-23T17:43:42.720Z,3.80
2022-09-23T17:53:46.775Z,5.67
2022-09-23T18:03:58.377Z,7.23
2022-09-23T18:14:07.928Z,4.78
2022-09-23T18:34:38.192Z,7.35
2022-09-23T18:44:43.548Z,8.03
2022-09-23T18:54:45.942Z,4.67
2022-09-23T19:04:48.156Z,5.03
2022-09-23T19:14:52.501Z,4.40
2022-09-23T19:24:54.730Z,5.80
2022-09-23T19:34:59.985Z,3.30
2022-09-23T19:45:05.009Z,2.70
2022-09-23T19:55:07.870Z,4.40
2022-09-23T20:05:12.133Z,3.80
2022-09-23T20:15:17.101Z,7.07
2022-09-23T20:25:22.559Z,5.10
2022-09-23T20:35:29.903Z,3.63
2022-09-23T20:45:32.326Z,3.63
2022-09-23T20:55:36.082Z,5.80
2022-09-23T21:05:42.507Z,4.93
2022-09-23T21:15:45.293Z,4.23
2022-09-23T21:25:51.459Z,5.50
2022-09-23T21:36:03.735Z,7.50
2022-09-23T21:46:13.283Z,4.80
2022-09-23T21:56:37.746Z,4.40
2022-09-23T22:06:40.646Z,5.70
2022-09-23T22:16:50.235Z,11.90
2022-09-23T22:26:55.720Z,7.20
2022-09-23T22:37:04.630Z,5.03
2022-09-23T22:47:11.811Z,4.30
2022-09-23T22:57:15.480Z,8.83
2022-09-23T23:07:23.020Z,5.50
2022-09-23T23:17:28.037Z,6.50
2022-09-23T23:27:32.852Z,8.77
2022-09-23T23:37:37.433Z,9.47
2022-09-23T23:47:40.382Z,11.57
2022-09-23T23:57:42.698Z,11.37
